createdAt,value
2022-11-28T00:01:14.222Z,0
2022-11-28T00:02:31.327Z,0
2022-11-28T00:03:48.432Z,0
2022-11-28T00:05:05.537Z,0
2022-11-28T00:06:22.642Z,0
2022-11-28T00:07:39.747Z,0
2022-11-28T00:08:55.868Z,0
2022-11-28T00:10:12.973Z,0
2022-11-28T00:11:30.075Z,0
2022-11-28T00:12:47.180Z,0
2022-11-28T00:14:03.301Z,0
2022-11-28T00:15:20.406Z,0
2022-11-28T00:16:37.511Z,0
2022-11-28T00:17:53.637Z,0
2022-11-28T00:19:09.758Z,0
2022-11-28T00:20:26.863Z,0
2022-11-28T00:21:42.989Z,0
2022-11-28T00:22:59.110Z,0
2022-11-28T00:24:16.215Z,0
2022-11-28T00:25:33.320Z,0
2022-11-28T00:26:50.424Z,0
2022-11-28T00:28:07.529Z,0
2022-11-28T00:29:24.634Z,0
2022-11-28T00:30:41.739Z,0
2022-11-28T00:31:58.844Z,0
2022-11-28T00:33:15.949Z,0
2022-11-28T00:34:33.054Z,0
2022-11-28T00:35:50.159Z,0
2022-11-28T00:37:07.263Z,0
2022-11-28T00:38:24.368Z,0
2022-11-28T00:39:40.489Z,0
2022-11-28T00:40:57.594Z,0
2022-11-28T00:42:14.699Z,0
2022-11-28T00:43:31.803Z,0
2022-11-28T00:44:48.909Z,0
2022-11-28T00:46:06.013Z,0
2022-11-28T00:47:23.118Z,0
2022-11-28T00:48:39.244Z,0
2022-11-28T00:49:55.365Z,0
2022-11-28T00:51:12.470Z,0
2022-11-28T00:52:28.596Z,0
2022-11-28T00:53:44.717Z,0
2022-11-28T00:55:01.822Z,0
2022-11-28T00:56:18.927Z,0
2022-11-28T00:57:36.031Z,0
2022-11-28T00:58:53.136Z,0
2022-11-28T01:00:10.241Z,0
2022-11-28T01:01:27.346Z,0
2022-11-28T01:02:44.451Z,0
2022-11-28T01:04:01.555Z,0
2022-11-28T01:05:18.660Z,0
2022-11-28T01:06:35.765Z,0
2022-11-28T01:07:52.870Z,0
2022-11-28T01:09:09.975Z,0
2022-11-28T01:10:26.095Z,0
2022-11-28T01:11:43.201Z,0
2022-11-28T01:13:00.305Z,0
2022-11-28T01:14:17.410Z,0
2022-11-28T01:15:34.515Z,0
2022-11-28T01:16:51.620Z,0
2022-11-28T01:18:08.725Z,0
2022-11-28T01:19:24.851Z,0
2022-11-28T01:20:40.972Z,0
2022-11-28T01:21:58.077Z,0
2022-11-28T01:23:14.203Z,0
2022-11-28T01:24:30.324Z,0
2022-11-28T01:25:47.428Z,0
2022-11-28T01:27:04.534Z,0
2022-11-28T01:28:21.638Z,0
2022-11-28T01:29:38.743Z,0
2022-11-28T01:30:55.848Z,0
2022-11-28T01:32:12.953Z,0
2022-11-28T01:33:30.057Z,0
2022-11-28T01:34:47.162Z,0
2022-11-28T01:36:04.267Z,0
2022-11-28T01:37:21.372Z,0
2022-11-28T01:38:38.477Z,0
2022-11-28T01:39:55.582Z,0
2022-11-28T01:41:11.703Z,0
2022-11-28T01:42:28.807Z,0
2022-11-28T01:43:45.912Z,0
2022-11-28T01:45:03.017Z,0
2022-11-28T01:46:20.121Z,0
2022-11-28T01:47:37.226Z,0
2022-11-28T01:48:54.331Z,0
2022-11-28T01:50:10.457Z,0
2022-11-28T01:51:26.578Z,0
2022-11-28T01:52:42.704Z,0
2022-11-28T01:53:58.825Z,0
2022-11-28T01:55:15.930Z,0
2022-11-28T01:56:33.035Z,0
2022-11-28T01:57:50.140Z,0
2022-11-28T01:59:07.244Z,0
2022-11-28T02:00:24.349Z,0
2022-11-28T02:01:41.454Z,0
2022-11-28T02:02:58.558Z,0
2022-11-28T02:04:15.663Z,0
2022-11-28T02:05:32.768Z,0
2022-11-28T02:06:49.873Z,0
2022-11-28T02:08:06.978Z,0
2022-11-28T02:09:24.082Z,0
2022-11-28T02:10:40.203Z,0
2022-11-28T02:11:57.308Z,0
2022-11-28T02:13:14.413Z,0
2022-11-28T02:14:31.518Z,0
2022-11-28T02:15:48.623Z,0
2022-11-28T02:17:05.728Z,0
2022-11-28T02:18:22.832Z,0
2022-11-28T02:19:39.937Z,0
2022-11-28T02:20:57.042Z,0
2022-11-28T02:22:14.147Z,0
2022-11-28T02:23:31.252Z,0
2022-11-28T02:24:48.357Z,0
2022-11-28T02:26:05.462Z,0
2022-11-28T02:27:21.583Z,0
2022-11-28T02:28:38.688Z,0
2022-11-28T02:29:55.793Z,0
2022-11-28T02:31:11.919Z,0
2022-11-28T02:32:28.039Z,0
2022-11-28T02:33:44.166Z,0
2022-11-28T02:35:00.286Z,0
2022-11-28T02:36:17.391Z,0
2022-11-28T02:37:34.496Z,0
2022-11-28T02:38:51.601Z,0
2022-11-28T02:40:08.705Z,0
2022-11-28T02:41:25.810Z,0
2022-11-28T02:42:42.915Z,0
2022-11-28T02:44:00.020Z,0
2022-11-28T02:45:17.125Z,0
2022-11-28T02:46:34.229Z,0
2022-11-28T02:47:51.334Z,0
2022-11-28T02:49:08.439Z,0
2022-11-28T02:50:25.544Z,0
2022-11-28T02:51:41.665Z,0
2022-11-28T02:52:58.769Z,0
2022-11-28T02:54:15.874Z,0
2022-11-28T02:55:32.979Z,0
2022-11-28T02:56:50.084Z,0
2022-11-28T02:58:07.189Z,0
2022-11-28T02:59:24.294Z,0
2022-11-28T03:00:40.420Z,0
2022-11-28T03:01:56.541Z,0
2022-11-28T03:03:12.667Z,0
2022-11-28T03:04:28.788Z,0
2022-11-28T03:05:45.893Z,0
2022-11-28T03:07:02.997Z,0
2022-11-28T03:08:20.102Z,0
2022-11-28T03:09:37.208Z,0
2022-11-28T03:10:54.312Z,0
2022-11-28T03:12:11.418Z,0
2022-11-28T03:13:28.523Z,0
2022-11-28T03:14:45.628Z,0
2022-11-28T03:16:02.734Z,0
2022-11-28T03:17:19.839Z,0
2022-11-28T03:18:36.943Z,0
2022-11-28T03:19:54.049Z,0
2022-11-28T03:21:10.170Z,0
2022-11-28T03:22:27.274Z,0
2022-11-28T03:23:44.379Z,0
2022-11-28T03:25:01.484Z,0
2022-11-28T03:26:18.590Z,0
2022-11-28T03:27:35.694Z,0
2022-11-28T03:28:52.800Z,0
2022-11-28T03:30:08.927Z,0
2022-11-28T03:31:25.048Z,0
2022-11-28T03:32:41.174Z,0
2022-11-28T03:33:57.295Z,0
2022-11-28T03:35:14.400Z,0
2022-11-28T03:36:31.505Z,0
2022-11-28T03:37:48.610Z,0
2022-11-28T03:39:05.715Z,0
2022-11-28T03:40:22.821Z,0
2022-11-28T03:41:39.926Z,0
2022-11-28T03:42:57.031Z,0
2022-11-28T03:44:14.135Z,0
2022-11-28T03:45:31.240Z,0
2022-11-28T03:46:48.346Z,0
2022-11-28T03:48:05.451Z,0
2022-11-28T03:49:22.556Z,0
2022-11-28T03:50:38.677Z,0
2022-11-28T03:51:55.782Z,0
2022-11-28T03:53:12.886Z,0
2022-11-28T03:54:29.991Z,0
2022-11-28T03:55:47.096Z,0
2022-11-28T03:57:04.201Z,0
2022-11-28T03:58:21.306Z,0
2022-11-28T03:59:37.432Z,0
2022-11-28T04:00:53.553Z,0
2022-11-28T04:02:10.658Z,0
2022-11-28T04:03:26.784Z,0
2022-11-28T04:04:42.905Z,0
2022-11-28T04:06:00.010Z,0
2022-11-28T04:07:17.115Z,0
2022-11-28T04:08:34.220Z,0
2022-11-28T04:09:51.325Z,0
2022-11-28T04:11:08.430Z,0
2022-11-28T04:12:25.535Z,0
2022-11-28T04:13:42.640Z,0
2022-11-28T04:14:59.745Z,0
2022-11-28T04:16:16.850Z,0
2022-11-28T04:17:33.954Z,0
2022-11-28T04:18:51.059Z,0
2022-11-28T04:20:08.164Z,0
2022-11-28T04:21:24.285Z,0
2022-11-28T04:22:41.390Z,0
2022-11-28T04:23:58.495Z,0
2022-11-28T04:25:15.600Z,0
2022-11-28T04:26:32.705Z,0
2022-11-28T04:27:49.810Z,0
2022-11-28T04:29:06.915Z,0
2022-11-28T04:30:23.041Z,0
2022-11-28T04:31:39.162Z,0
2022-11-28T04:32:56.267Z,0
2022-11-28T04:34:13.372Z,0
2022-11-28T04:35:29.498Z,0
2022-11-28T04:36:45.619Z,0
2022-11-28T04:38:02.724Z,0
2022-11-28T04:39:19.829Z,0
2022-11-28T04:40:36.934Z,0
2022-11-28T04:41:54.039Z,0
2022-11-28T04:43:11.144Z,0
2022-11-28T04:44:28.248Z,0
2022-11-28T04:45:45.353Z,0
2022-11-28T04:47:02.458Z,0
2022-11-28T04:48:19.563Z,0
2022-11-28T04:49:36.668Z,0
2022-11-28T04:50:53.773Z,0
2022-11-28T04:52:10.878Z,0
2022-11-28T04:53:26.999Z,0
2022-11-28T04:54:44.104Z,0
2022-11-28T04:56:01.208Z,0
2022-11-28T04:57:18.313Z,0
2022-11-28T04:58:35.418Z,0
2022-11-28T04:59:52.523Z,0
2022-11-28T05:01:09.628Z,0
2022-11-28T05:02:25.754Z,0
2022-11-28T05:03:41.875Z,0
2022-11-28T05:04:58.002Z,0
2022-11-28T05:06:14.123Z,0
2022-11-28T05:07:31.228Z,0
2022-11-28T05:08:48.333Z,0
2022-11-28T05:10:05.438Z,0
2022-11-28T05:11:22.543Z,0
2022-11-28T05:12:39.647Z,0
2022-11-28T05:13:56.752Z,0
2022-11-28T05:15:13.857Z,0
2022-11-28T05:16:30.962Z,0
2022-11-28T05:17:48.067Z,0
2022-11-28T05:19:05.172Z,0
2022-11-28T05:20:22.277Z,0
2022-11-28T05:21:39.382Z,0
2022-11-28T05:22:55.503Z,0
2022-11-28T05:24:12.608Z,0
2022-11-28T05:25:29.713Z,0
2022-11-28T05:26:46.817Z,0
2022-11-28T05:28:03.922Z,0
2022-11-28T05:29:21.027Z,0
2022-11-28T05:30:38.132Z,0
2022-11-28T05:31:55.237Z,0
2022-11-28T05:33:12.342Z,0
2022-11-28T05:34:29.447Z,0
2022-11-28T05:35:46.552Z,0
2022-11-28T05:37:03.656Z,0
2022-11-28T05:38:20.761Z,0
2022-11-28T05:39:36.882Z,0
2022-11-28T05:40:53.008Z,0
2022-11-28T05:42:09.129Z,0
2022-11-28T05:43:25.256Z,0
2022-11-28T05:44:41.376Z,0
2022-11-28T05:45:58.482Z,0
2022-11-28T05:47:15.587Z,0
2022-11-28T05:48:32.692Z,0
2022-11-28T05:49:49.797Z,0
2022-11-28T05:51:06.902Z,0
2022-11-28T05:52:24.007Z,0
2022-11-28T05:53:41.112Z,0
2022-11-28T05:54:58.217Z,0
2022-11-28T05:56:15.322Z,0
2022-11-28T05:57:32.427Z,0
2022-11-28T05:58:49.532Z,0
2022-11-28T06:00:06.636Z,0
2022-11-28T06:01:22.757Z,0
2022-11-28T06:02:39.862Z,0
2022-11-28T06:03:56.967Z,0
2022-11-28T06:05:14.072Z,0
2022-11-28T06:06:31.177Z,0
2022-11-28T06:07:48.282Z,0
2022-11-28T06:09:05.387Z,0
2022-11-28T06:10:21.513Z,0
2022-11-28T06:11:37.634Z,0
2022-11-28T06:12:54.739Z,0
2022-11-28T06:14:10.865Z,0
2022-11-28T06:15:26.986Z,0
2022-11-28T06:16:44.091Z,0
2022-11-28T06:18:01.196Z,0
2022-11-28T06:19:18.300Z,0
2022-11-28T06:20:35.405Z,0
2022-11-28T06:21:52.510Z,0
2022-11-28T06:23:09.615Z,0
2022-11-28T06:24:26.720Z,0
2022-11-28T06:25:43.825Z,0
2022-11-28T06:27:00.930Z,0
2022-11-28T06:28:18.034Z,0
2022-11-28T06:29:35.139Z,0
2022-11-28T06:30:52.244Z,0
2022-11-28T06:32:08.365Z,0
2022-11-28T06:33:25.470Z,0
2022-11-28T06:34:42.575Z,0
2022-11-28T06:35:59.680Z,0
2022-11-28T06:37:16.785Z,0
2022-11-28T06:38:33.889Z,0
2022-11-28T06:39:50.994Z,0
2022-11-28T06:41:07.120Z,0
2022-11-28T06:42:23.241Z,0
2022-11-28T06:43:40.346Z,0
2022-11-28T06:44:57.451Z,0
2022-11-28T06:46:13.577Z,0
2022-11-28T06:47:29.698Z,0
2022-11-28T06:48:46.803Z,0
2022-11-28T06:50:03.908Z,0
2022-11-28T06:51:21.013Z,0
2022-11-28T06:52:38.118Z,0
2022-11-28T06:53:55.223Z,0
2022-11-28T06:55:12.328Z,0
2022-11-28T06:56:29.433Z,0
2022-11-28T06:57:46.538Z,0
2022-11-28T06:59:03.643Z,0
2022-11-28T07:00:20.748Z,0
2022-11-28T07:01:37.853Z,0
2022-11-28T07:02:54.958Z,0
2022-11-28T07:04:11.079Z,0
2022-11-28T07:05:28.184Z,5
2022-11-28T07:06:45.289Z,5
2022-11-28T07:08:02.394Z,5
2022-11-28T07:09:19.499Z,5
2022-11-28T07:10:36.604Z,5
2022-11-28T07:11:53.710Z,5
2022-11-28T07:13:09.836Z,5
2022-11-28T07:14:25.957Z,5
2022-11-28T07:15:42.083Z,5
2022-11-28T07:16:58.204Z,11
2022-11-28T07:18:15.309Z,11
2022-11-28T07:19:32.414Z,11
2022-11-28T07:20:49.519Z,11
2022-11-28T07:22:06.624Z,11
2022-11-28T07:23:23.729Z,11
2022-11-28T07:24:40.834Z,11
2022-11-28T07:25:57.939Z,11
2022-11-28T07:27:15.044Z,16
2022-11-28T07:28:32.149Z,16
2022-11-28T07:29:49.254Z,16
2022-11-28T07:31:06.359Z,16
2022-11-28T07:32:23.463Z,16
2022-11-28T07:33:39.584Z,16
2022-11-28T07:34:56.689Z,16
2022-11-28T07:36:13.794Z,16
2022-11-28T07:37:30.899Z,16
2022-11-28T07:38:48.005Z,16
2022-11-28T07:40:05.110Z,22
2022-11-28T07:41:22.214Z,22
2022-11-28T07:42:38.341Z,22
2022-11-28T07:43:54.462Z,22
2022-11-28T07:45:11.566Z,28
2022-11-28T07:46:28.671Z,28
2022-11-28T07:47:44.798Z,28
2022-11-28T07:49:00.919Z,28
2022-11-28T07:50:18.023Z,28
2022-11-28T07:51:35.128Z,28
2022-11-28T07:52:52.233Z,33
2022-11-28T07:54:09.338Z,33
2022-11-28T07:55:26.443Z,33
2022-11-28T07:56:43.548Z,33
2022-11-28T07:58:00.653Z,33
2022-11-28T07:59:17.758Z,33
2022-11-28T08:00:34.863Z,33
2022-11-28T08:01:51.968Z,39
2022-11-28T08:03:09.073Z,39
2022-11-28T08:04:26.178Z,39
2022-11-28T08:05:42.299Z,39
2022-11-28T08:06:59.404Z,39
2022-11-28T08:08:16.509Z,39
2022-11-28T08:09:33.614Z,39
2022-11-28T08:10:50.719Z,45
2022-11-28T08:12:07.824Z,45
2022-11-28T08:13:24.929Z,50
2022-11-28T08:14:41.055Z,50
2022-11-28T08:15:57.176Z,50
2022-11-28T08:17:13.302Z,50
2022-11-28T08:18:29.423Z,56
2022-11-28T08:19:46.528Z,56
2022-11-28T08:21:03.633Z,50
2022-11-28T08:22:20.738Z,50
2022-11-28T08:23:37.842Z,56
2022-11-28T08:24:54.947Z,56
2022-11-28T08:26:12.052Z,56
2022-11-28T08:28:46.262Z,56
2022-11-28T08:30:03.367Z,56
2022-11-28T08:31:20.472Z,61
2022-11-28T08:32:37.576Z,61
2022-11-28T08:33:54.681Z,61
2022-11-28T08:35:10.802Z,61
2022-11-28T08:36:27.907Z,67
2022-11-28T08:37:45.012Z,67
2022-11-28T08:39:02.117Z,67
2022-11-28T08:40:19.222Z,67
2022-11-28T08:41:36.327Z,67
2022-11-28T08:42:53.432Z,73
2022-11-28T08:44:10.537Z,73
2022-11-28T08:45:27.642Z,73
2022-11-28T08:46:44.747Z,78
2022-11-28T08:48:01.851Z,78
2022-11-28T08:49:17.972Z,84
2022-11-28T08:50:35.077Z,84
2022-11-28T08:51:52.182Z,90
2022-11-28T08:53:08.308Z,90
2022-11-28T08:54:24.429Z,95
2022-11-28T08:55:40.555Z,101
2022-11-28T08:56:56.676Z,95
2022-11-28T08:58:13.781Z,90
2022-11-28T08:59:30.886Z,95
2022-11-28T09:00:47.991Z,101
2022-11-28T09:02:05.095Z,101
2022-11-28T09:03:22.200Z,101
2022-11-28T09:04:39.305Z,95
2022-11-28T09:05:56.410Z,101
2022-11-28T09:07:13.515Z,106
2022-11-28T09:08:30.620Z,106
2022-11-28T09:09:47.725Z,112
2022-11-28T09:11:04.830Z,118
2022-11-28T09:12:21.935Z,118
2022-11-28T09:13:38.056Z,129
2022-11-28T09:14:55.160Z,129
2022-11-28T09:16:12.265Z,129
2022-11-28T09:17:29.370Z,129
2022-11-28T09:18:46.475Z,123
2022-11-28T09:20:03.580Z,118
2022-11-28T09:21:20.685Z,118
2022-11-28T09:22:36.811Z,118
2022-11-28T09:23:52.932Z,112
2022-11-28T09:25:10.037Z,112
2022-11-28T09:26:27.142Z,118
2022-11-28T09:27:43.268Z,118
2022-11-28T09:28:59.389Z,112
2022-11-28T09:30:16.493Z,118
2022-11-28T09:31:33.598Z,118
2022-11-28T09:32:50.703Z,118
2022-11-28T09:34:07.808Z,118
2022-11-28T09:35:24.912Z,129
2022-11-28T09:36:42.018Z,135
2022-11-28T09:37:59.122Z,140
2022-11-28T09:39:16.227Z,140
2022-11-28T09:40:33.332Z,140
2022-11-28T09:41:50.436Z,135
2022-11-28T09:43:07.541Z,129
2022-11-28T09:44:24.646Z,123
2022-11-28T09:45:40.767Z,123
2022-11-28T09:46:57.872Z,123
2022-11-28T09:48:14.977Z,123
2022-11-28T09:49:32.082Z,123
2022-11-28T09:50:49.186Z,123
2022-11-28T09:52:06.291Z,123
2022-11-28T09:53:23.396Z,123
2022-11-28T09:54:39.522Z,123
2022-11-28T09:55:55.643Z,123
2022-11-28T09:57:11.769Z,123
2022-11-28T09:58:27.890Z,123
2022-11-28T09:59:44.996Z,112
2022-11-28T10:01:02.100Z,106
2022-11-28T10:02:19.205Z,101
2022-11-28T10:03:36.310Z,95
2022-11-28T10:04:53.415Z,90
2022-11-28T10:06:10.521Z,90
2022-11-28T10:07:27.625Z,90
2022-11-28T10:08:44.730Z,90
2022-11-28T10:10:01.835Z,84
2022-11-28T10:11:18.939Z,84
2022-11-28T10:12:36.044Z,84
2022-11-28T10:13:53.149Z,90
2022-11-28T10:15:09.270Z,101
2022-11-28T10:16:26.375Z,106
2022-11-28T10:17:43.480Z,106
2022-11-28T10:19:00.584Z,101
2022-11-28T10:20:17.689Z,95
2022-11-28T10:21:34.794Z,95
2022-11-28T10:22:51.898Z,95
2022-11-28T10:24:08.024Z,95
2022-11-28T10:25:24.145Z,90
2022-11-28T10:26:40.271Z,90
2022-11-28T10:27:56.392Z,90
2022-11-28T10:29:13.497Z,90
2022-11-28T10:30:30.602Z,90
2022-11-28T10:31:47.707Z,90
2022-11-28T10:33:04.812Z,90
2022-11-28T10:34:21.916Z,90
2022-11-28T10:35:39.021Z,90
2022-11-28T10:36:56.126Z,90
2022-11-28T10:38:13.231Z,90
2022-11-28T10:39:30.335Z,90
2022-11-28T10:40:47.440Z,90
2022-11-28T10:42:04.545Z,90
2022-11-28T10:43:21.650Z,90
2022-11-28T10:44:37.770Z,90
2022-11-28T10:45:54.875Z,84
2022-11-28T10:47:11.980Z,84
2022-11-28T10:48:29.085Z,84
2022-11-28T10:49:46.189Z,84
2022-11-28T10:51:03.294Z,84
2022-11-28T10:52:20.399Z,84
2022-11-28T10:53:36.525Z,90
2022-11-28T10:54:52.646Z,90
2022-11-28T10:56:08.772Z,90
2022-11-28T10:57:24.893Z,101
2022-11-28T10:58:41.997Z,101
2022-11-28T10:59:59.102Z,95
2022-11-28T11:02:33.312Z,84
2022-11-28T11:03:50.416Z,84
2022-11-28T11:05:07.521Z,84
2022-11-28T11:06:24.626Z,84
2022-11-28T11:07:41.731Z,78
2022-11-28T11:08:58.835Z,73
2022-11-28T11:10:15.940Z,73
2022-11-28T11:11:33.046Z,73
2022-11-28T11:12:50.150Z,73
2022-11-28T11:14:06.271Z,73
2022-11-28T11:15:23.376Z,73
2022-11-28T11:16:40.481Z,78
2022-11-28T11:17:57.585Z,73
2022-11-28T11:19:14.690Z,78
2022-11-28T11:20:31.795Z,78
2022-11-28T11:21:48.900Z,78
2022-11-28T11:23:06.004Z,78
2022-11-28T11:24:23.109Z,78
2022-11-28T11:25:40.214Z,78
2022-11-28T11:26:57.318Z,78
2022-11-28T11:28:14.423Z,73
2022-11-28T11:29:30.549Z,73
2022-11-28T11:30:46.670Z,67
2022-11-28T11:32:03.775Z,67
2022-11-28T11:33:19.901Z,67
2022-11-28T11:34:36.022Z,67
2022-11-28T11:35:53.127Z,67
2022-11-28T11:37:10.231Z,67
2022-11-28T11:38:27.336Z,67
2022-11-28T11:39:44.441Z,67
2022-11-28T11:41:01.546Z,67
2022-11-28T11:42:18.650Z,67
2022-11-28T11:43:35.755Z,67
2022-11-28T11:44:52.860Z,67
2022-11-28T11:46:09.965Z,73
2022-11-28T11:47:27.070Z,67
2022-11-28T11:48:44.175Z,61
2022-11-28T11:50:01.279Z,67
2022-11-28T11:51:17.400Z,67
2022-11-28T11:52:34.505Z,67
2022-11-28T11:53:51.610Z,67
2022-11-28T11:55:08.715Z,61
2022-11-28T11:56:25.820Z,61
2022-11-28T11:57:42.925Z,61
2022-11-28T11:59:00.030Z,67
2022-11-28T12:00:16.156Z,67
2022-11-28T12:01:32.277Z,67
2022-11-28T12:02:49.382Z,67
2022-11-28T12:04:06.486Z,73
2022-11-28T12:05:23.591Z,73
2022-11-28T12:06:40.696Z,73
2022-11-28T12:07:57.801Z,67
2022-11-28T12:09:14.906Z,67
2022-11-28T12:10:32.011Z,67
2022-11-28T12:11:49.115Z,73
2022-11-28T12:13:06.220Z,73
2022-11-28T12:14:23.325Z,73
2022-11-28T12:15:40.430Z,78
2022-11-28T12:16:57.534Z,78
2022-11-28T12:18:13.655Z,84
2022-11-28T12:19:30.760Z,84
2022-11-28T12:20:47.865Z,84
2022-11-28T12:22:04.970Z,90
2022-11-28T12:23:22.075Z,90
2022-11-28T12:24:39.180Z,95
2022-11-28T12:25:56.285Z,95
2022-11-28T12:27:12.411Z,95
2022-11-28T12:28:28.532Z,90
2022-11-28T12:29:44.658Z,95
2022-11-28T12:31:00.779Z,90
2022-11-28T12:32:17.884Z,95
2022-11-28T12:33:34.989Z,95
2022-11-28T12:34:52.093Z,101
2022-11-28T12:36:09.198Z,101
2022-11-28T12:37:26.303Z,95
2022-11-28T12:38:43.408Z,90
2022-11-28T12:40:00.514Z,90
2022-11-28T12:41:17.619Z,84
2022-11-28T12:42:34.723Z,78
2022-11-28T12:43:51.828Z,78
2022-11-28T12:45:08.933Z,73
2022-11-28T12:46:26.038Z,73
2022-11-28T12:47:42.159Z,73
2022-11-28T12:48:59.264Z,73
2022-11-28T12:50:16.369Z,73
2022-11-28T12:51:33.473Z,67
2022-11-28T12:52:50.578Z,67
2022-11-28T12:54:07.683Z,73
2022-11-28T12:55:24.788Z,73
2022-11-28T12:56:40.914Z,73
2022-11-28T12:57:57.035Z,73
2022-11-28T12:59:13.161Z,67
2022-11-28T13:00:29.282Z,67
2022-11-28T13:01:46.386Z,73
2022-11-28T13:03:03.492Z,78
2022-11-28T13:04:20.596Z,84
2022-11-28T13:05:37.701Z,90
2022-11-28T13:06:53.822Z,84
2022-11-28T13:08:10.927Z,90
2022-11-28T13:09:28.033Z,84
2022-11-28T13:10:45.138Z,84
2022-11-28T13:12:02.242Z,84
2022-11-28T13:13:19.347Z,90
2022-11-28T13:14:36.452Z,90
2022-11-28T13:15:53.557Z,90
2022-11-28T13:17:10.662Z,90
2022-11-28T13:18:27.766Z,90
2022-11-28T13:19:44.871Z,95
2022-11-28T13:21:01.976Z,101
2022-11-28T13:22:19.081Z,101
2022-11-28T13:23:35.202Z,101
2022-11-28T13:24:52.307Z,106
2022-11-28T13:26:08.433Z,112
2022-11-28T13:27:24.554Z,118
2022-11-28T13:28:40.680Z,129
2022-11-28T13:29:56.801Z,129
2022-11-28T13:31:13.906Z,129
2022-11-28T13:32:31.011Z,123
2022-11-28T13:33:48.116Z,118
2022-11-28T13:35:05.220Z,123
2022-11-28T13:36:22.326Z,118
2022-11-28T13:37:39.431Z,118
2022-11-28T13:38:56.536Z,123
2022-11-28T13:40:13.641Z,129
2022-11-28T13:42:47.851Z,112
2022-11-28T13:44:04.955Z,106
2022-11-28T13:45:22.060Z,101
2022-11-28T13:46:38.181Z,84
2022-11-28T13:47:55.286Z,67
2022-11-28T13:49:12.391Z,56
2022-11-28T13:50:29.495Z,50
2022-11-28T13:51:46.600Z,45
2022-11-28T13:53:03.706Z,39
2022-11-28T13:54:20.811Z,33
2022-11-28T13:55:37.916Z,33
2022-11-28T13:56:54.042Z,33
2022-11-28T13:58:10.163Z,28
2022-11-28T13:59:26.289Z,28
2022-11-28T14:00:42.410Z,28
2022-11-28T14:01:59.515Z,22
2022-11-28T14:03:16.620Z,22
2022-11-28T14:04:33.724Z,22
2022-11-28T14:05:50.829Z,22
2022-11-28T14:07:07.934Z,22
2022-11-28T14:08:25.039Z,22
2022-11-28T14:09:42.144Z,22
2022-11-28T14:10:59.248Z,16
2022-11-28T14:12:16.353Z,22
2022-11-28T14:13:33.458Z,22
2022-11-28T14:14:50.563Z,16
2022-11-28T14:16:07.667Z,16
2022-11-28T14:17:23.788Z,16
2022-11-28T14:18:40.893Z,22
2022-11-28T14:19:57.998Z,22
2022-11-28T14:21:15.103Z,22
2022-11-28T14:22:32.208Z,22
2022-11-28T14:23:49.312Z,22
2022-11-28T14:25:06.417Z,22
2022-11-28T14:26:22.543Z,22
2022-11-28T14:27:38.664Z,22
2022-11-28T14:28:54.790Z,22
2022-11-28T14:30:10.911Z,28
2022-11-28T14:31:28.016Z,28
2022-11-28T14:32:45.121Z,28
2022-11-28T14:34:02.226Z,28
2022-11-28T14:35:19.331Z,28
2022-11-28T14:36:36.436Z,22
2022-11-28T14:37:53.540Z,22
2022-11-28T14:39:10.645Z,28
2022-11-28T14:40:27.750Z,28
2022-11-28T14:41:44.855Z,28
2022-11-28T14:43:01.959Z,28
2022-11-28T14:44:19.064Z,28
2022-11-28T14:45:36.169Z,28
2022-11-28T14:46:52.290Z,22
2022-11-28T14:48:09.395Z,22
2022-11-28T14:49:26.500Z,22
2022-11-28T14:50:43.604Z,22
2022-11-28T14:52:00.709Z,22
2022-11-28T14:53:17.812Z,22
2022-11-28T14:54:34.917Z,22
2022-11-28T14:55:52.021Z,22
2022-11-28T14:57:09.127Z,22
2022-11-28T14:58:26.231Z,16
2022-11-28T14:59:42.357Z,16
2022-11-28T15:00:58.478Z,11
2022-11-28T15:02:15.583Z,11
2022-11-28T15:03:32.688Z,11
2022-11-28T15:04:48.814Z,11
2022-11-28T15:06:04.935Z,11
2022-11-28T15:07:22.040Z,11
2022-11-28T15:08:39.145Z,11
2022-11-28T15:09:56.250Z,11
2022-11-28T15:11:13.355Z,11
2022-11-28T15:12:30.460Z,5
2022-11-28T15:13:47.565Z,5
2022-11-28T15:15:04.669Z,5
2022-11-28T15:16:21.774Z,5
2022-11-28T15:17:38.879Z,5
2022-11-28T15:18:55.984Z,5
2022-11-28T15:20:13.089Z,5
2022-11-28T15:21:30.194Z,5
2022-11-28T15:22:46.315Z,5
2022-11-28T15:24:03.420Z,5
2022-11-28T15:25:20.525Z,5
2022-11-28T15:26:37.627Z,5
2022-11-28T15:27:54.732Z,0
2022-11-28T15:29:11.837Z,0
2022-11-28T15:30:28.942Z,0
2022-11-28T15:31:45.068Z,0
2022-11-28T15:33:01.189Z,0
2022-11-28T15:34:18.294Z,0
2022-11-28T15:35:34.420Z,0
2022-11-28T15:36:50.541Z,0
2022-11-28T15:38:07.646Z,0
2022-11-28T15:39:24.751Z,0
2022-11-28T15:40:41.855Z,0
2022-11-28T15:41:58.960Z,0
2022-11-28T15:43:16.065Z,0
2022-11-28T15:44:33.170Z,0
2022-11-28T15:45:50.274Z,0
2022-11-28T15:47:07.379Z,0
2022-11-28T15:48:24.484Z,0
2022-11-28T15:49:41.589Z,0
2022-11-28T15:50:58.694Z,0
2022-11-28T15:52:15.799Z,0
2022-11-28T15:53:31.919Z,0
2022-11-28T15:54:49.024Z,0
2022-11-28T15:56:06.129Z,0
2022-11-28T15:57:23.234Z,0
2022-11-28T15:58:40.339Z,0
2022-11-28T15:59:57.444Z,0
2022-11-28T16:01:14.549Z,0
2022-11-28T16:02:30.675Z,0
2022-11-28T16:03:46.796Z,0
2022-11-28T16:05:02.922Z,0
2022-11-28T16:06:19.042Z,0
2022-11-28T16:07:36.147Z,0
2022-11-28T16:08:53.252Z,0
2022-11-28T16:10:10.357Z,0
2022-11-28T16:11:27.461Z,0
2022-11-28T16:12:44.566Z,0
2022-11-28T16:14:01.671Z,0
2022-11-28T16:15:18.776Z,0
2022-11-28T16:16:35.881Z,0
2022-11-28T16:17:52.985Z,0
2022-11-28T16:19:10.091Z,0
2022-11-28T16:20:27.196Z,0
2022-11-28T16:21:44.300Z,0
2022-11-28T16:23:00.421Z,0
2022-11-28T16:24:17.526Z,0
2022-11-28T16:25:34.631Z,0
2022-11-28T16:26:51.735Z,0
2022-11-28T16:28:08.841Z,0
2022-11-28T16:29:25.945Z,0
2022-11-28T16:30:43.050Z,0
2022-11-28T16:31:59.176Z,0
2022-11-28T16:33:15.297Z,0
2022-11-28T16:34:31.423Z,0
2022-11-28T16:35:47.544Z,0
2022-11-28T16:37:04.649Z,0
2022-11-28T16:38:21.753Z,0
2022-11-28T16:39:38.858Z,0
2022-11-28T16:40:55.963Z,0
2022-11-28T16:42:13.068Z,0
2022-11-28T16:43:30.173Z,0
2022-11-28T16:44:47.277Z,0
2022-11-28T16:46:04.382Z,0
2022-11-28T16:47:21.487Z,0
2022-11-28T16:48:38.592Z,0
2022-11-28T16:49:55.697Z,0
2022-11-28T16:51:12.801Z,0
2022-11-28T16:52:28.922Z,0
2022-11-28T16:53:46.027Z,0
2022-11-28T16:55:03.132Z,0
2022-11-28T16:56:20.237Z,0
2022-11-28T16:57:37.342Z,0
2022-11-28T16:58:54.447Z,0
2022-11-28T17:00:11.551Z,0
2022-11-28T17:01:27.678Z,0
2022-11-28T17:02:43.798Z,0
2022-11-28T17:03:59.925Z,0
2022-11-28T17:05:16.046Z,0
2022-11-28T17:06:33.150Z,0
2022-11-28T17:07:50.255Z,0
2022-11-28T17:09:07.360Z,0
2022-11-28T17:10:24.465Z,0
2022-11-28T17:11:41.570Z,0
2022-11-28T17:12:58.675Z,0
2022-11-28T17:14:15.779Z,0
2022-11-28T17:15:32.884Z,0
2022-11-28T17:16:49.990Z,0
2022-11-28T17:18:07.094Z,0
2022-11-28T17:19:24.199Z,0
2022-11-28T17:20:41.304Z,0
2022-11-28T17:21:57.425Z,0
2022-11-28T17:23:14.530Z,0
2022-11-28T17:24:30.651Z,0
2022-11-28T17:25:47.756Z,0
2022-11-28T17:27:04.860Z,0
2022-11-28T17:28:21.965Z,0
2022-11-28T17:29:39.070Z,0
2022-11-28T17:30:55.196Z,0
2022-11-28T17:32:11.317Z,0
2022-11-28T17:33:28.422Z,0
2022-11-28T17:34:45.526Z,0
2022-11-28T17:36:02.631Z,0
2022-11-28T17:37:19.736Z,0
2022-11-28T17:38:36.841Z,0
2022-11-28T17:39:53.946Z,0
2022-11-28T17:41:11.050Z,0
2022-11-28T17:42:28.155Z,0
2022-11-28T17:43:45.260Z,0
2022-11-28T17:45:02.364Z,0
2022-11-28T17:46:19.469Z,0
2022-11-28T17:47:36.574Z,0
2022-11-28T17:48:52.695Z,0
2022-11-28T17:50:09.800Z,0
2022-11-28T17:51:26.904Z,0
2022-11-28T17:52:44.009Z,0
2022-11-28T17:54:01.114Z,0
2022-11-28T17:55:18.218Z,0
2022-11-28T17:56:35.323Z,0
2022-11-28T17:57:51.449Z,0
2022-11-28T17:59:07.570Z,0
2022-11-28T18:00:23.696Z,0
2022-11-28T18:01:39.817Z,0
2022-11-28T18:02:56.922Z,0
2022-11-28T18:04:14.027Z,0
2022-11-28T18:05:31.131Z,0
2022-11-28T18:06:48.236Z,0
2022-11-28T18:08:05.341Z,0
2022-11-28T18:09:22.446Z,0
2022-11-28T18:10:39.550Z,0
2022-11-28T18:11:56.655Z,0
2022-11-28T18:13:13.760Z,0
2022-11-28T18:14:30.865Z,0
2022-11-28T18:15:47.969Z,0
2022-11-28T18:17:05.074Z,0
2022-11-28T18:18:21.195Z,0
2022-11-28T18:19:38.300Z,0
2022-11-28T18:20:55.404Z,0
2022-11-28T18:22:12.509Z,0
2022-11-28T18:23:29.614Z,0
2022-11-28T18:24:46.719Z,0
2022-11-28T18:26:03.823Z,0
2022-11-28T18:27:19.949Z,0
2022-11-28T18:28:36.070Z,0
2022-11-28T18:29:52.196Z,0
2022-11-28T18:31:08.317Z,0
2022-11-28T18:32:25.422Z,0
2022-11-28T18:33:42.527Z,0
2022-11-28T18:34:59.631Z,0
2022-11-28T18:36:16.736Z,0
2022-11-28T18:37:33.841Z,0
2022-11-28T18:38:50.946Z,0
2022-11-28T18:40:08.051Z,0